sensor_id;sensor_type;location;lat;lon;timestamp;P1;durP1;ratioP1;P2;durP2;ratioP2
25948;SDS011;13961;51.178;4.448;2023-08-21T00:01:09;4.32;;;1.50;;
25948;SDS011;13961;51.178;4.448;2023-08-21T00:03:35;5.80;;;1.90;;
25948;SDS011;13961;51.178;4.448;2023-08-21T00:06:01;7.40;;;1.95;;
25948;SDS011;13961;51.178;4.448;2023-08-21T00:08:26;6.55;;;1.77;;
25948;SDS011;13961;51.178;4.448;2023-08-21T00:10:52;4.30;;;1.88;;
25948;SDS011;13961;51.178;4.448;2023-08-21T00:13:18;5.47;;;1.70;;
25948;SDS011;13961;51.178;4.448;2023-08-21T00:15:44;3.45;;;1.65;;
25948;SDS011;13961;51.178;4.448;2023-08-21T00:18:10;7.00;;;1.70;;
25948;SDS011;13961;51.178;4.448;2023-08-21T00:20:35;8.18;;;1.98;;
25948;SDS011;13961;51.178;4.448;2023-08-21T00:23:01;5.82;;;1.92;;
25948;SDS011;13961;51.178;4.448;2023-08-21T00:25:27;8.13;;;2.00;;
25948;SDS011;13961;51.178;4.448;2023-08-21T00:27:53;6.07;;;1.88;;
25948;SDS011;13961;51.178;4.448;2023-08-21T00:30:18;6.22;;;2.00;;
25948;SDS011;13961;51.178;4.448;2023-08-21T00:32:44;5.32;;;1.60;;
25948;SDS011;13961;51.178;4.448;2023-08-21T00:35:10;6.28;;;2.00;;
25948;SDS011;13961;51.178;4.448;2023-08-21T00:37:35;6.65;;;1.60;;
25948;SDS011;13961;51.178;4.448;2023-08-21T00:40:02;7.18;;;1.95;;
25948;SDS011;13961;51.178;4.448;2023-08-21T00:42:28;3.50;;;1.58;;
25948;SDS011;13961;51.178;4.448;2023-08-21T00:44:54;3.97;;;1.70;;
25948;SDS011;13961;51.178;4.448;2023-08-21T00:47:19;6.50;;;1.88;;
25948;SDS011;13961;51.178;4.448;2023-08-21T00:49:45;7.57;;;1.85;;
25948;SDS011;13961;51.178;4.448;2023-08-21T00:52:12;4.57;;;2.00;;
25948;SDS011;13961;51.178;4.448;2023-08-21T00:54:39;5.68;;;1.95;;
25948;SDS011;13961;51.178;4.448;2023-08-21T00:57:05;6.00;;;2.05;;
25948;SDS011;13961;51.178;4.448;2023-08-21T00:59:32;5.45;;;2.03;;
25948;SDS011;13961;51.178;4.448;2023-08-21T01:01:57;5.47;;;2.00;;
25948;SDS011;13961;51.178;4.448;2023-08-21T01:04:23;7.82;;;2.40;;
25948;SDS011;13961;51.178;4.448;2023-08-21T01:06:49;6.38;;;1.80;;
25948;SDS011;13961;51.178;4.448;2023-08-21T01:09:29;8.75;;;1.88;;
25948;SDS011;13961;51.178;4.448;2023-08-21T01:17:14;7.78;;;2.13;;
25948;SDS011;13961;51.178;4.448;2023-08-21T01:19:46;4.75;;;2.05;;
25948;SDS011;13961;51.178;4.448;2023-08-21T01:22:13;5.70;;;2.08;;
25948;SDS011;13961;51.178;4.448;2023-08-21T01:24:40;4.22;;;1.73;;
25948;SDS011;13961;51.178;4.448;2023-08-21T01:27:06;4.78;;;1.67;;
25948;SDS011;13961;51.178;4.448;2023-08-21T01:29:32;7.05;;;1.95;;
25948;SDS011;13961;51.178;4.448;2023-08-21T01:32:09;7.60;;;1.83;;
25948;SDS011;13961;51.178;4.448;2023-08-21T01:34:40;7.33;;;1.80;;
25948;SDS011;13961;51.178;4.448;2023-08-21T01:37:08;4.90;;;1.90;;
25948;SDS011;13961;51.178;4.448;2023-08-21T01:39:35;9.38;;;2.30;;
25948;SDS011;13961;51.178;4.448;2023-08-21T01:42:01;8.40;;;2.25;;
25948;SDS011;13961;51.178;4.448;2023-08-21T01:44:27;7.68;;;1.90;;
25948;SDS011;13961;51.178;4.448;2023-08-21T01:46:53;5.32;;;1.92;;
25948;SDS011;13961;51.178;4.448;2023-08-21T01:49:19;6.35;;;1.90;;
25948;SDS011;13961;51.178;4.448;2023-08-21T01:51:44;5.00;;;1.77;;
25948;SDS011;13961;51.178;4.448;2023-08-21T01:54:10;6.38;;;1.98;;
25948;SDS011;13961;51.178;4.448;2023-08-21T01:56:36;8.35;;;2.15;;
25948;SDS011;13961;51.178;4.448;2023-08-21T01:59:03;8.10;;;2.03;;
25948;SDS011;13961;51.178;4.448;2023-08-21T02:01:29;5.80;;;1.73;;
25948;SDS011;13961;51.178;4.448;2023-08-21T02:03:55;5.68;;;1.70;;
25948;SDS011;13961;51.178;4.448;2023-08-21T02:06:21;4.45;;;1.75;;
25948;SDS011;13961;51.178;4.448;2023-08-21T02:08:46;8.45;;;2.00;;
25948;SDS011;13961;51.178;4.448;2023-08-21T02:11:12;4.88;;;1.70;;
25948;SDS011;13961;51.178;4.448;2023-08-21T02:13:38;7.50;;;1.60;;
25948;SDS011;13961;51.178;4.448;2023-08-21T02:16:03;5.10;;;1.90;;
25948;SDS011;13961;51.178;4.448;2023-08-21T02:18:29;4.70;;;1.70;;
25948;SDS011;13961;51.178;4.448;2023-08-21T02:20:55;5.55;;;1.70;;
25948;SDS011;13961;51.178;4.448;2023-08-21T02:23:20;7.65;;;1.98;;
25948;SDS011;13961;51.178;4.448;2023-08-21T02:25:46;4.43;;;1.85;;
25948;SDS011;13961;51.178;4.448;2023-08-21T02:28:14;8.45;;;2.20;;
25948;SDS011;13961;51.178;4.448;2023-08-21T02:30:40;6.75;;;2.22;;
25948;SDS011;13961;51.178;4.448;2023-08-21T02:33:06;6.63;;;2.42;;
25948;SDS011;13961;51.178;4.448;2023-08-21T02:35:32;5.63;;;2.30;;
25948;SDS011;13961;51.178;4.448;2023-08-21T02:37:58;6.85;;;2.05;;
25948;SDS011;13961;51.178;4.448;2023-08-21T02:40:23;4.78;;;2.00;;
25948;SDS011;13961;51.178;4.448;2023-08-21T02:42:49;6.07;;;2.10;;
25948;SDS011;13961;51.178;4.448;2023-08-21T02:45:15;6.80;;;2.40;;
25948;SDS011;13961;51.178;4.448;2023-08-21T02:47:42;5.05;;;2.17;;
25948;SDS011;13961;51.178;4.448;2023-08-21T02:50:08;9.20;;;2.40;;
25948;SDS011;13961;51.178;4.448;2023-08-21T02:52:35;7.68;;;2.05;;
25948;SDS011;13961;51.178;4.448;2023-08-21T02:55:01;5.38;;;2.15;;
25948;SDS011;13961;51.178;4.448;2023-08-21T02:57:28;4.43;;;1.80;;
25948;SDS011;13961;51.178;4.448;2023-08-21T02:59:54;7.97;;;2.30;;
25948;SDS011;13961;51.178;4.448;2023-08-21T03:02:20;8.45;;;2.88;;
25948;SDS011;13961;51.178;4.448;2023-08-21T03:04:46;7.80;;;2.78;;
25948;SDS011;13961;51.178;4.448;2023-08-21T03:07:13;6.90;;;2.53;;
25948;SDS011;13961;51.178;4.448;2023-08-21T03:09:39;8.80;;;2.83;;
25948;SDS011;13961;51.178;4.448;2023-08-21T03:12:06;8.02;;;3.13;;
25948;SDS011;13961;51.178;4.448;2023-08-21T03:14:32;11.15;;;3.13;;
25948;SDS011;13961;51.178;4.448;2023-08-21T03:16:58;8.82;;;3.03;;
25948;SDS011;13961;51.178;4.448;2023-08-21T03:19:23;5.70;;;2.60;;
25948;SDS011;13961;51.178;4.448;2023-08-21T03:21:49;6.90;;;2.50;;
25948;SDS011;13961;51.178;4.448;2023-08-21T03:24:15;6.93;;;2.85;;
25948;SDS011;13961;51.178;4.448;2023-08-21T03:26:40;9.73;;;2.90;;
25948;SDS011;13961;51.178;4.448;2023-08-21T03:29:06;4.95;;;2.50;;
25948;SDS011;13961;51.178;4.448;2023-08-21T03:31:32;8.07;;;2.95;;
25948;SDS011;13961;51.178;4.448;2023-08-21T03:33:57;8.30;;;2.50;;
25948;SDS011;13961;51.178;4.448;2023-08-21T03:36:23;8.15;;;2.90;;
25948;SDS011;13961;51.178;4.448;2023-08-21T03:38:56;10.23;;;2.80;;
25948;SDS011;13961;51.178;4.448;2023-08-21T03:41:22;5.15;;;2.67;;
25948;SDS011;13961;51.178;4.448;2023-08-21T03:43:48;8.35;;;3.00;;
25948;SDS011;13961;51.178;4.448;2023-08-21T03:46:14;10.63;;;2.90;;
25948;SDS011;13961;51.178;4.448;2023-08-21T03:48:39;8.35;;;3.03;;
25948;SDS011;13961;51.178;4.448;2023-08-21T03:51:05;8.30;;;2.78;;
25948;SDS011;13961;51.178;4.448;2023-08-21T03:53:32;8.57;;;2.55;;
25948;SDS011;13961;51.178;4.448;2023-08-21T03:55:57;6.88;;;2.60;;
25948;SDS011;13961;51.178;4.448;2023-08-21T03:58:23;5.80;;;2.53;;
25948;SDS011;13961;51.178;4.448;2023-08-21T04:00:50;8.20;;;2.70;;
25948;SDS011;13961;51.178;4.448;2023-08-21T04:03:16;7.40;;;2.60;;
25948;SDS011;13961;51.178;4.448;2023-08-21T04:05:42;7.05;;;2.80;;
25948;SDS011;13961;51.178;4.448;2023-08-21T04:08:07;8.75;;;2.90;;
25948;SDS011;13961;51.178;4.448;2023-08-21T04:10:33;10.07;;;2.65;;
25948;SDS011;13961;51.178;4.448;2023-08-21T04:12:59;4.85;;;2.47;;
25948;SDS011;13961;51.178;4.448;2023-08-21T04:15:25;8.75;;;2.60;;
25948;SDS011;13961;51.178;4.448;2023-08-21T04:17:51;10.30;;;2.65;;
25948;SDS011;13961;51.178;4.448;2023-08-21T04:20:17;5.40;;;2.40;;
25948;SDS011;13961;51.178;4.448;2023-08-21T04:22:45;9.40;;;2.80;;
25948;SDS011;13961;51.178;4.448;2023-08-21T04:25:10;9.65;;;2.72;;
25948;SDS011;13961;51.178;4.448;2023-08-21T04:27:36;8.43;;;2.30;;
25948;SDS011;13961;51.178;4.448;2023-08-21T04:30:02;5.90;;;2.75;;
25948;SDS011;13961;51.178;4.448;2023-08-21T04:32:28;8.25;;;2.35;;
25948;SDS011;13961;51.178;4.448;2023-08-21T04:34:54;6.78;;;2.70;;
25948;SDS011;13961;51.178;4.448;2023-08-21T04:37:20;10.50;;;2.70;;
25948;SDS011;13961;51.178;4.448;2023-08-21T04:39:46;8.65;;;2.67;;
25948;SDS011;13961;51.178;4.448;2023-08-21T04:42:15;9.52;;;2.45;;
25948;SDS011;13961;51.178;4.448;2023-08-21T04:44:40;5.47;;;2.58;;
25948;SDS011;13961;51.178;4.448;2023-08-21T04:47:22;8.23;;;2.20;;
25948;SDS011;13961;51.178;4.448;2023-08-21T04:49:51;7.28;;;2.22;;
25948;SDS011;13961;51.178;4.448;2023-08-21T04:52:17;7.97;;;2.47;;
25948;SDS011;13961;51.178;4.448;2023-08-21T04:54:43;4.68;;;2.13;;
25948;SDS011;13961;51.178;4.448;2023-08-21T04:57:08;8.25;;;3.00;;
25948;SDS011;13961;51.178;4.448;2023-08-21T04:59:34;9.60;;;3.08;;
25948;SDS011;13961;51.178;4.448;2023-08-21T05:02:01;9.68;;;2.53;;
25948;SDS011;13961;51.178;4.448;2023-08-21T05:04:27;9.18;;;2.58;;
25948;SDS011;13961;51.178;4.448;2023-08-21T05:06:53;9.93;;;2.47;;
25948;SDS011;13961;51.178;4.448;2023-08-21T05:09:19;7.80;;;2.42;;
25948;SDS011;13961;51.178;4.448;2023-08-21T05:11:45;24.05;;;3.80;;
25948;SDS011;13961;51.178;4.448;2023-08-21T05:14:10;5.75;;;2.63;;
25948;SDS011;13961;51.178;4.448;2023-08-21T05:16:36;8.95;;;2.60;;
25948;SDS011;13961;51.178;4.448;2023-08-21T05:19:02;9.30;;;2.55;;
25948;SDS011;13961;51.178;4.448;2023-08-21T05:21:29;5.78;;;2.45;;
25948;SDS011;13961;51.178;4.448;2023-08-21T05:23:55;7.00;;;2.53;;
25948;SDS011;13961;51.178;4.448;2023-08-21T05:26:20;8.35;;;2.58;;
25948;SDS011;13961;51.178;4.448;2023-08-21T05:28:46;9.10;;;2.90;;
25948;SDS011;13961;51.178;4.448;2023-08-21T05:31:12;9.93;;;2.63;;
25948;SDS011;13961;51.178;4.448;2023-08-21T05:33:37;6.40;;;2.45;;
25948;SDS011;13961;51.178;4.448;2023-08-21T05:36:04;5.72;;;2.55;;
25948;SDS011;13961;51.178;4.448;2023-08-21T05:38:30;8.93;;;2.53;;
25948;SDS011;13961;51.178;4.448;2023-08-21T05:40:56;13.48;;;2.95;;
25948;SDS011;13961;51.178;4.448;2023-08-21T05:43:23;7.50;;;3.17;;
25948;SDS011;13961;51.178;4.448;2023-08-21T05:45:50;6.95;;;2.80;;
25948;SDS011;13961;51.178;4.448;2023-08-21T05:48:15;9.90;;;2.58;;
25948;SDS011;13961;51.178;4.448;2023-08-21T05:50:44;8.02;;;2.72;;
25948;SDS011;13961;51.178;4.448;2023-08-21T05:53:11;8.70;;;2.63;;
25948;SDS011;13961;51.178;4.448;2023-08-21T05:55:37;10.00;;;2.70;;
25948;SDS011;13961;51.178;4.448;2023-08-21T05:58:05;10.60;;;3.22;;
25948;SDS011;13961;51.178;4.448;2023-08-21T06:00:32;11.18;;;3.13;;
25948;SDS011;13961;51.178;4.448;2023-08-21T06:02:59;11.38;;;3.10;;
25948;SDS011;13961;51.178;4.448;2023-08-21T06:05:25;11.48;;;3.60;;
25948;SDS011;13961;51.178;4.448;2023-08-21T06:07:50;13.23;;;3.28;;
25948;SDS011;13961;51.178;4.448;2023-08-21T06:10:17;6.65;;;3.25;;
25948;SDS011;13961;51.178;4.448;2023-08-21T06:12:44;9.02;;;3.28;;
25948;SDS011;13961;51.178;4.448;2023-08-21T06:15:10;11.45;;;3.90;;
25948;SDS011;13961;51.178;4.448;2023-08-21T06:17:37;10.07;;;3.42;;
25948;SDS011;13961;51.178;4.448;2023-08-21T06:20:04;16.30;;;3.58;;
25948;SDS011;13961;51.178;4.448;2023-08-21T06:22:32;8.90;;;3.75;;
25948;SDS011;13961;51.178;4.448;2023-08-21T06:24:59;11.05;;;3.40;;
25948;SDS011;13961;51.178;4.448;2023-08-21T06:27:26;15.63;;;4.00;;
25948;SDS011;13961;51.178;4.448;2023-08-21T06:29:53;11.43;;;3.80;;
25948;SDS011;13961;51.178;4.448;2023-08-21T06:32:18;9.15;;;3.80;;
25948;SDS011;13961;51.178;4.448;2023-08-21T06:34:45;11.43;;;3.70;;
25948;SDS011;13961;51.178;4.448;2023-08-21T06:37:11;8.35;;;3.60;;
25948;SDS011;13961;51.178;4.448;2023-08-21T06:39:38;13.10;;;3.80;;
25948;SDS011;13961;51.178;4.448;2023-08-21T06:42:04;10.38;;;3.45;;
25948;SDS011;13961;51.178;4.448;2023-08-21T06:44:30;11.60;;;3.63;;
25948;SDS011;13961;51.178;4.448;2023-08-21T06:49:24;13.77;;;3.65;;
25948;SDS011;13961;51.178;4.448;2023-08-21T06:51:52;12.75;;;4.00;;
25948;SDS011;13961;51.178;4.448;2023-08-21T06:54:23;12.75;;;4.10;;
25948;SDS011;13961;51.178;4.448;2023-08-21T06:56:49;10.57;;;3.45;;
25948;SDS011;13961;51.178;4.448;2023-08-21T06:59:16;31.48;;;4.78;;
25948;SDS011;13961;51.178;4.448;2023-08-21T07:01:41;12.95;;;3.30;;
25948;SDS011;13961;51.178;4.448;2023-08-21T07:04:08;11.10;;;3.00;;
25948;SDS011;13961;51.178;4.448;2023-08-21T07:06:34;8.88;;;3.10;;
25948;SDS011;13961;51.178;4.448;2023-08-21T07:11:30;7.75;;;2.50;;
25948;SDS011;13961;51.178;4.448;2023-08-21T07:13:55;7.75;;;2.65;;
25948;SDS011;13961;51.178;4.448;2023-08-21T07:16:22;10.52;;;2.97;;
25948;SDS011;13961;51.178;4.448;2023-08-21T07:18:48;7.35;;;3.28;;
25948;SDS011;13961;51.178;4.448;2023-08-21T07:21:15;10.38;;;2.60;;
25948;SDS011;13961;51.178;4.448;2023-08-21T07:23:42;8.85;;;2.70;;
25948;SDS011;13961;51.178;4.448;2023-08-21T07:26:11;8.43;;;2.58;;
25948;SDS011;13961;51.178;4.448;2023-08-21T07:28:36;7.88;;;2.45;;
25948;SDS011;13961;51.178;4.448;2023-08-21T07:31:09;10.20;;;3.00;;
25948;SDS011;13961;51.178;4.448;2023-08-21T07:33:35;8.73;;;2.60;;
25948;SDS011;13961;51.178;4.448;2023-08-21T07:36:01;8.38;;;2.55;;
25948;SDS011;13961;51.178;4.448;2023-08-21T07:38:30;9.50;;;2.60;;
25948;SDS011;13961;51.178;4.448;2023-08-21T07:41:03;7.90;;;2.78;;
25948;SDS011;13961;51.178;4.448;2023-08-21T07:43:29;7.40;;;2.45;;
25948;SDS011;13961;51.178;4.448;2023-08-21T07:45:55;8.48;;;2.13;;
25948;SDS011;13961;51.178;4.448;2023-08-21T07:48:21;12.07;;;2.70;;
25948;SDS011;13961;51.178;4.448;2023-08-21T07:50:53;7.63;;;2.65;;
25948;SDS011;13961;51.178;4.448;2023-08-21T07:53:19;8.52;;;2.00;;
25948;SDS011;13961;51.178;4.448;2023-08-21T07:55:51;8.73;;;2.20;;
25948;SDS011;13961;51.178;4.448;2023-08-21T07:58:18;10.15;;;2.72;;
25948;SDS011;13961;51.178;4.448;2023-08-21T08:00:45;12.45;;;3.17;;
25948;SDS011;13961;51.178;4.448;2023-08-21T08:03:12;9.15;;;3.00;;
25948;SDS011;13961;51.178;4.448;2023-08-21T08:05:39;11.20;;;3.97;;
25948;SDS011;13961;51.178;4.448;2023-08-21T08:08:07;12.52;;;3.90;;
25948;SDS011;13961;51.178;4.448;2023-08-21T08:10:37;14.32;;;3.75;;
25948;SDS011;13961;51.178;4.448;2023-08-21T08:13:05;11.43;;;4.10;;
25948;SDS011;13961;51.178;4.448;2023-08-21T08:15:31;8.38;;;3.58;;
25948;SDS011;13961;51.178;4.448;2023-08-21T08:18:01;9.80;;;3.28;;
25948;SDS011;13961;51.178;4.448;2023-08-21T08:20:29;10.05;;;3.53;;
25948;SDS011;13961;51.178;4.448;2023-08-21T08:22:56;10.75;;;4.18;;
25948;SDS011;13961;51.178;4.448;2023-08-21T08:27:51;11.13;;;3.45;;
25948;SDS011;13961;51.178;4.448;2023-08-21T08:30:17;8.93;;;4.05;;
25948;SDS011;13961;51.178;4.448;2023-08-21T08:32:46;11.93;;;4.20;;
25948;SDS011;13961;51.178;4.448;2023-08-21T08:35:13;9.60;;;3.85;;
25948;SDS011;13961;51.178;4.448;2023-08-21T08:37:40;10.07;;;3.95;;
25948;SDS011;13961;51.178;4.448;2023-08-21T08:40:06;9.52;;;4.50;;
25948;SDS011;13961;51.178;4.448;2023-08-21T08:45:02;13.85;;;4.53;;
25948;SDS011;13961;51.178;4.448;2023-08-21T08:47:32;12.75;;;5.10;;
25948;SDS011;13961;51.178;4.448;2023-08-21T08:52:35;9.25;;;4.25;;
25948;SDS011;13961;51.178;4.448;2023-08-21T08:55:03;11.15;;;4.00;;
25948;SDS011;13961;51.178;4.448;2023-08-21T08:57:30;9.57;;;4.75;;
25948;SDS011;13961;51.178;4.448;2023-08-21T08:59:55;10.82;;;4.35;;
25948;SDS011;13961;51.178;4.448;2023-08-21T09:02:24;9.32;;;4.00;;
25948;SDS011;13961;51.178;4.448;2023-08-21T09:07:20;8.93;;;3.13;;
25948;SDS011;13961;51.178;4.448;2023-08-21T09:09:49;9.43;;;3.08;;
25948;SDS011;13961;51.178;4.448;2023-08-21T09:12:18;11.43;;;3.13;;
25948;SDS011;13961;51.178;4.448;2023-08-21T09:14:45;8.68;;;3.25;;
25948;SDS011;13961;51.178;4.448;2023-08-21T09:17:11;10.45;;;3.42;;
25948;SDS011;13961;51.178;4.448;2023-08-21T09:19:40;8.02;;;3.30;;
25948;SDS011;13961;51.178;4.448;2023-08-21T09:22:16;8.93;;;3.08;;
25948;SDS011;13961;51.178;4.448;2023-08-21T09:27:38;10.07;;;3.40;;
25948;SDS011;13961;51.178;4.448;2023-08-21T09:30:10;11.27;;;3.47;;
25948;SDS011;13961;51.178;4.448;2023-08-21T09:32:53;11.23;;;3.45;;
25948;SDS011;13961;51.178;4.448;2023-08-21T09:35:27;10.82;;;3.40;;
25948;SDS011;13961;51.178;4.448;2023-08-21T09:37:56;11.57;;;3.83;;
25948;SDS011;13961;51.178;4.448;2023-08-21T09:40:22;9.77;;;3.80;;
25948;SDS011;13961;51.178;4.448;2023-08-21T09:42:52;9.80;;;3.30;;
25948;SDS011;13961;51.178;4.448;2023-08-21T09:45:22;6.40;;;2.22;;
25948;SDS011;13961;51.178;4.448;2023-08-21T09:47:51;4.22;;;1.45;;
25948;SDS011;13961;51.178;4.448;2023-08-21T09:50:21;7.53;;;1.90;;
25948;SDS011;13961;51.178;4.448;2023-08-21T09:55:19;5.82;;;1.50;;
25948;SDS011;13961;51.178;4.448;2023-08-21T09:57:48;6.43;;;1.60;;
25948;SDS011;13961;51.178;4.448;2023-08-21T10:00:35;7.55;;;2.63;;
25948;SDS011;13961;51.178;4.448;2023-08-21T10:03:07;7.97;;;2.70;;
25948;SDS011;13961;51.178;4.448;2023-08-21T10:05:37;8.00;;;2.55;;
25948;SDS011;13961;51.178;4.448;2023-08-21T10:08:06;7.90;;;2.97;;
25948;SDS011;13961;51.178;4.448;2023-08-21T10:10:32;9.20;;;2.90;;
25948;SDS011;13961;51.178;4.448;2023-08-21T10:13:00;7.28;;;2.60;;
25948;SDS011;13961;51.178;4.448;2023-08-21T10:18:17;5.15;;;2.70;;
25948;SDS011;13961;51.178;4.448;2023-08-21T10:23:24;8.65;;;2.97;;
25948;SDS011;13961;51.178;4.448;2023-08-21T10:25:55;4.00;;;1.80;;
25948;SDS011;13961;51.178;4.448;2023-08-21T10:28:40;7.70;;;2.30;;
25948;SDS011;13961;51.178;4.448;2023-08-21T10:34:06;3.03;;;1.35;;
25948;SDS011;13961;51.178;4.448;2023-08-21T10:36:37;5.35;;;1.60;;
25948;SDS011;13961;51.178;4.448;2023-08-21T10:39:14;3.55;;;1.77;;
25948;SDS011;13961;51.178;4.448;2023-08-21T10:49:59;5.20;;;1.67;;
25948;SDS011;13961;51.178;4.448;2023-08-21T10:52:29;3.88;;;1.90;;
25948;SDS011;13961;51.178;4.448;2023-08-21T10:55:01;4.68;;;1.70;;
25948;SDS011;13961;51.178;4.448;2023-08-21T10:57:32;8.00;;;2.03;;
25948;SDS011;13961;51.178;4.448;2023-08-21T11:00:01;6.40;;;1.40;;
25948;SDS011;13961;51.178;4.448;2023-08-21T11:02:32;4.32;;;1.50;;
25948;SDS011;13961;51.178;4.448;2023-08-21T11:05:00;5.18;;;1.13;;
25948;SDS011;13961;51.178;4.448;2023-08-21T11:07:29;4.18;;;1.52;;
25948;SDS011;13961;51.178;4.448;2023-08-21T11:10:03;5.05;;;1.30;;
25948;SDS011;13961;51.178;4.448;2023-08-21T11:15:01;2.13;;;0.98;;
25948;SDS011;13961;51.178;4.448;2023-08-21T11:17:28;3.65;;;1.02;;
25948;SDS011;13961;51.178;4.448;2023-08-21T11:19:55;2.53;;;1.00;;
25948;SDS011;13961;51.178;4.448;2023-08-21T11:22:27;4.53;;;1.35;;
25948;SDS011;13961;51.178;4.448;2023-08-21T11:24:56;4.55;;;1.05;;
25948;SDS011;13961;51.178;4.448;2023-08-21T11:27:22;6.22;;;1.00;;
25948;SDS011;13961;51.178;4.448;2023-08-21T11:29:50;3.92;;;1.13;;
25948;SDS011;13961;51.178;4.448;2023-08-21T11:32:22;1.15;;;0.70;;
25948;SDS011;13961;51.178;4.448;2023-08-21T11:37:22;2.97;;;1.08;;
25948;SDS011;13961;51.178;4.448;2023-08-21T11:39:53;1.92;;;0.70;;
25948;SDS011;13961;51.178;4.448;2023-08-21T11:44:59;2.28;;;0.50;;
25948;SDS011;13961;51.178;4.448;2023-08-21T11:47:32;4.90;;;0.73;;
25948;SDS011;13961;51.178;4.448;2023-08-21T11:52:33;2.28;;;0.47;;
25948;SDS011;13961;51.178;4.448;2023-08-21T11:55:07;3.60;;;0.70;;
25948;SDS011;13961;51.178;4.448;2023-08-21T11:57:34;2.22;;;0.68;;
25948;SDS011;13961;51.178;4.448;2023-08-21T12:00:02;2.00;;;0.75;;
25948;SDS011;13961;51.178;4.448;2023-08-21T12:05:05;1.05;;;0.60;;
25948;SDS011;13961;51.178;4.448;2023-08-21T12:07:32;3.28;;;0.88;;
25948;SDS011;13961;51.178;4.448;2023-08-21T12:09:58;2.72;;;0.90;;
25948;SDS011;13961;51.178;4.448;2023-08-21T12:14:55;2.33;;;0.60;;
25948;SDS011;13961;51.178;4.448;2023-08-21T12:17:22;1.95;;;0.65;;
25948;SDS011;13961;51.178;4.448;2023-08-21T12:19:50;4.72;;;0.88;;
25948;SDS011;13961;51.178;4.448;2023-08-21T12:24:45;2.67;;;0.88;;
25948;SDS011;13961;51.178;4.448;2023-08-21T12:27:10;2.70;;;0.60;;
25948;SDS011;13961;51.178;4.448;2023-08-21T12:32:07;2.45;;;0.80;;
25948;SDS011;13961;51.178;4.448;2023-08-21T12:34:33;4.10;;;0.75;;
25948;SDS011;13961;51.178;4.448;2023-08-21T12:36:59;2.40;;;0.80;;
25948;SDS011;13961;51.178;4.448;2023-08-21T12:39:27;3.50;;;0.80;;
25948;SDS011;13961;51.178;4.448;2023-08-21T12:41:53;1.83;;;0.85;;
25948;SDS011;13961;51.178;4.448;2023-08-21T12:44:20;2.17;;;0.70;;
25948;SDS011;13961;51.178;4.448;2023-08-21T12:46:46;1.73;;;0.70;;
25948;SDS011;13961;51.178;4.448;2023-08-21T12:49:11;2.88;;;0.80;;
25948;SDS011;13961;51.178;4.448;2023-08-21T12:51:38;2.63;;;1.00;;
25948;SDS011;13961;51.178;4.448;2023-08-21T12:54:04;3.20;;;0.80;;
25948;SDS011;13961;51.178;4.448;2023-08-21T13:01:31;3.20;;;1.15;;
25948;SDS011;13961;51.178;4.448;2023-08-21T13:04:01;3.72;;;0.90;;
25948;SDS011;13961;51.178;4.448;2023-08-21T13:06:28;2.92;;;0.80;;
25948;SDS011;13961;51.178;4.448;2023-08-21T13:08:54;3.15;;;1.00;;
25948;SDS011;13961;51.178;4.448;2023-08-21T13:11:20;2.88;;;0.98;;
25948;SDS011;13961;51.178;4.448;2023-08-21T13:13:46;2.67;;;0.98;;
25948;SDS011;13961;51.178;4.448;2023-08-21T13:16:12;3.65;;;0.80;;
25948;SDS011;13961;51.178;4.448;2023-08-21T13:18:38;2.25;;;0.98;;
25948;SDS011;13961;51.178;4.448;2023-08-21T13:21:07;2.55;;;1.17;;
25948;SDS011;13961;51.178;4.448;2023-08-21T13:23:34;3.10;;;0.93;;
25948;SDS011;13961;51.178;4.448;2023-08-21T13:26:02;2.67;;;1.00;;
25948;SDS011;13961;51.178;4.448;2023-08-21T13:28:28;3.78;;;0.93;;
25948;SDS011;13961;51.178;4.448;2023-08-21T13:30:58;2.60;;;0.80;;
25948;SDS011;13961;51.178;4.448;2023-08-21T13:33:24;2.60;;;0.90;;
25948;SDS011;13961;51.178;4.448;2023-08-21T13:35:50;1.80;;;1.00;;
25948;SDS011;13961;51.178;4.448;2023-08-21T13:38:17;2.03;;;1.02;;
25948;SDS011;13961;51.178;4.448;2023-08-21T13:40:45;4.25;;;1.70;;
25948;SDS011;13961;51.178;4.448;2023-08-21T13:43:12;4.80;;;1.90;;
25948;SDS011;13961;51.178;4.448;2023-08-21T13:45:38;7.90;;;2.17;;
25948;SDS011;13961;51.178;4.448;2023-08-21T13:48:11;4.68;;;1.90;;
25948;SDS011;13961;51.178;4.448;2023-08-21T13:50:36;3.97;;;1.90;;
25948;SDS011;13961;51.178;4.448;2023-08-21T13:53:03;4.93;;;2.40;;
25948;SDS011;13961;51.178;4.448;2023-08-21T13:55:31;2.72;;;1.65;;
25948;SDS011;13961;51.178;4.448;2023-08-21T13:57:57;4.05;;;2.35;;
25948;SDS011;13961;51.178;4.448;2023-08-21T14:00:25;5.03;;;2.38;;
25948;SDS011;13961;51.178;4.448;2023-08-21T14:02:51;5.50;;;2.20;;
25948;SDS011;13961;51.178;4.448;2023-08-21T14:05:17;3.70;;;1.90;;
25948;SDS011;13961;51.178;4.448;2023-08-21T14:07:44;3.80;;;1.90;;
25948;SDS011;13961;51.178;4.448;2023-08-21T14:10:10;4.47;;;2.00;;
25948;SDS011;13961;51.178;4.448;2023-08-21T14:12:40;5.60;;;2.20;;
25948;SDS011;13961;51.178;4.448;2023-08-21T14:15:12;7.03;;;2.38;;
25948;SDS011;13961;51.178;4.448;2023-08-21T14:17:37;3.30;;;2.20;;
25948;SDS011;13961;51.178;4.448;2023-08-21T14:20:04;4.20;;;3.00;;
25948;SDS011;13961;51.178;4.448;2023-08-21T14:22:34;6.22;;;3.00;;
25948;SDS011;13961;51.178;4.448;2023-08-21T14:25:00;6.60;;;3.38;;
25948;SDS011;13961;51.178;4.448;2023-08-21T14:27:28;6.72;;;3.20;;
25948;SDS011;13961;51.178;4.448;2023-08-21T14:29:55;5.40;;;3.00;;
25948;SDS011;13961;51.178;4.448;2023-08-21T14:32:26;4.50;;;2.95;;
25948;SDS011;13961;51.178;4.448;2023-08-21T14:34:53;4.47;;;2.92;;
25948;SDS011;13961;51.178;4.448;2023-08-21T14:37:21;4.57;;;2.70;;
25948;SDS011;13961;51.178;4.448;2023-08-21T14:39:48;8.07;;;3.20;;
25948;SDS011;13961;51.178;4.448;2023-08-21T14:42:14;6.03;;;2.80;;
25948;SDS011;13961;51.178;4.448;2023-08-21T14:44:41;5.35;;;3.03;;
25948;SDS011;13961;51.178;4.448;2023-08-21T14:49:37;8.85;;;2.50;;
25948;SDS011;13961;51.178;4.448;2023-08-21T14:52:03;4.05;;;2.65;;
25948;SDS011;13961;51.178;4.448;2023-08-21T14:54:35;5.70;;;2.50;;
25948;SDS011;13961;51.178;4.448;2023-08-21T14:57:01;7.53;;;2.75;;
25948;SDS011;13961;51.178;4.448;2023-08-21T14:59:27;7.32;;;2.75;;
25948;SDS011;13961;51.178;4.448;2023-08-21T15:01:53;5.78;;;2.80;;
25948;SDS011;13961;51.178;4.448;2023-08-21T15:04:22;6.43;;;3.55;;
25948;SDS011;13961;51.178;4.448;2023-08-21T15:06:47;13.55;;;3.65;;
25948;SDS011;13961;51.178;4.448;2023-08-21T15:09:15;11.25;;;3.60;;
25948;SDS011;13961;51.178;4.448;2023-08-21T15:14:10;5.00;;;2.70;;
25948;SDS011;13961;51.178;4.448;2023-08-21T15:16:39;6.78;;;3.03;;
25948;SDS011;13961;51.178;4.448;2023-08-21T15:19:06;10.50;;;3.05;;
25948;SDS011;13961;51.178;4.448;2023-08-21T15:21:35;6.88;;;3.53;;
25948;SDS011;13961;51.178;4.448;2023-08-21T15:24:01;5.70;;;3.05;;
25948;SDS011;13961;51.178;4.448;2023-08-21T15:26:27;6.07;;;3.83;;
25948;SDS011;13961;51.178;4.448;2023-08-21T15:28:53;4.53;;;3.03;;
25948;SDS011;13961;51.178;4.448;2023-08-21T15:31:21;9.05;;;4.03;;
25948;SDS011;13961;51.178;4.448;2023-08-21T15:33:46;8.13;;;4.05;;
25948;SDS011;13961;51.178;4.448;2023-08-21T15:36:15;5.80;;;3.22;;
25948;SDS011;13961;51.178;4.448;2023-08-21T15:38:41;9.32;;;4.35;;
25948;SDS011;13961;51.178;4.448;2023-08-21T15:41:10;8.68;;;3.40;;
25948;SDS011;13961;51.178;4.448;2023-08-21T15:43:38;9.52;;;3.40;;
25948;SDS011;13961;51.178;4.448;2023-08-21T15:46:06;8.18;;;3.42;;
25948;SDS011;13961;51.178;4.448;2023-08-21T15:48:33;7.57;;;3.53;;
25948;SDS011;13961;51.178;4.448;2023-08-21T15:51:01;12.40;;;4.93;;
25948;SDS011;13961;51.178;4.448;2023-08-21T15:53:34;10.50;;;4.15;;
25948;SDS011;13961;51.178;4.448;2023-08-21T15:56:00;10.43;;;4.10;;
25948;SDS011;13961;51.178;4.448;2023-08-21T15:58:28;8.30;;;3.90;;